KTEB/TEB METAR and TAF weather

Enter ICAO airport designator
Station Type Date Time Source
KTEB METAR 2020/11/27 13:51 UTC NOAA

KTEB 271351Z 00000KT 10SM MIFG BKN050 12/11 A3007 RMK AO2 SLP181 T01220106 $


Station Type Date Time Source
KTEB Decoded METAR 2020/11/27 13:51 UTC NOAA

TETERBORO AIRPORT, NJ, United States (KTEB) 40-52N 74-03W 7M
Nov 27, 2020 - 08:51 AM EST / 2020.11.27 1351 UTC
Wind: Calm:0
Visibility: 10 mile(s):0
Sky conditions: mostly cloudy
Weather: shallow fog
Temperature: 54.0 F (12.2 C)
Dew Point: 51.1 F (10.6 C)
Relative Humidity: 89%
Pressure (altimeter): 30.07 in. Hg (1018 hPa)
ob: KTEB 271351Z 00000KT 10SM MIFG BKN050 12/11 A3007 RMK AO2 SLP181 T01220106
cycle: 14

Station Type Date Time Source
KTEB TAF 2020/11/27 12:33 UTC NOAA

TAF KTEB 271131Z 2712/2818 VRB04KT P6SM BKN050
FM281600 30007KT P6SM BKN050

Example: see airport list